createdAt,value
2023-05-04T00:00:29.119Z,952.2
2023-05-04T00:01:31.092Z,952.2
2023-05-04T00:02:33.299Z,952.2
2023-05-04T00:03:35.734Z,952.2
2023-05-04T00:04:38.236Z,952.2
2023-05-04T00:05:40.214Z,952.2
2023-05-04T00:06:42.061Z,952.2
2023-05-04T00:07:43.913Z,952.2
2023-05-04T00:08:45.764Z,952.2
2023-05-04T00:09:47.614Z,952.2
2023-05-04T00:10:49.363Z,952.1
2023-05-04T00:11:51.304Z,952.1
2023-05-04T00:12:53.192Z,952.1
2023-05-04T00:13:54.901Z,952.1
2023-05-04T00:14:56.633Z,952.1
2023-05-04T00:15:58.701Z,952.2
2023-05-04T00:17:00.707Z,952.1
2023-05-04T00:18:02.659Z,952.1
2023-05-04T00:19:04.477Z,952.2
2023-05-04T00:20:07.110Z,952.1
2023-05-04T00:21:09.187Z,952.1
2023-05-04T00:22:11.034Z,952.1
2023-05-04T00:23:12.921Z,952.2
2023-05-04T00:24:14.678Z,952.1
2023-05-04T00:25:16.303Z,952.2
2023-05-04T00:26:18.246Z,952.2
2023-05-04T00:27:19.991Z,952.2
2023-05-04T00:28:24.519Z,952.2
2023-05-04T00:29:26.453Z,952.2
2023-05-04T00:30:28.210Z,952.2
2023-05-04T00:31:30.054Z,952.2
2023-05-04T00:32:32.110Z,952.2
2023-05-04T00:33:33.970Z,952.2
2023-05-04T00:34:35.795Z,952.2
2023-05-04T00:35:37.664Z,952.2
2023-05-04T00:36:39.496Z,952.2
2023-05-04T00:37:41.448Z,952.2
2023-05-04T00:38:43.308Z,952.2
2023-05-04T00:39:45.156Z,952.2
2023-05-04T00:40:46.818Z,952.2
2023-05-04T00:41:48.650Z,952.2
2023-05-04T00:42:53.350Z,952.2
2023-05-04T00:43:55.346Z,952.2
2023-05-04T00:44:57.270Z,952.2
2023-05-04T00:45:59.117Z,952.2
2023-05-04T00:47:01.407Z,952.2
2023-05-04T00:48:03.763Z,952.2
2023-05-04T00:49:05.700Z,952.2
2023-05-04T00:50:07.946Z,952.2
2023-05-04T00:51:09.834Z,952.2
2023-05-04T00:52:11.899Z,952.2
2023-05-04T00:53:13.709Z,952.2
2023-05-04T00:54:15.551Z,952.2
2023-05-04T00:55:17.340Z,952.2
2023-05-04T00:56:19.162Z,952.2
2023-05-04T00:57:21.119Z,952.2
2023-05-04T00:58:22.962Z,952.2
2023-05-04T00:59:24.751Z,952.2
2023-05-04T01:00:26.660Z,952.2
2023-05-04T01:01:28.669Z,952.2
2023-05-04T01:02:30.799Z,952.2
2023-05-04T01:03:33.047Z,952.2
2023-05-04T01:04:34.981Z,952.1
2023-05-04T01:05:36.748Z,952.1
2023-05-04T01:06:38.687Z,952.2
2023-05-04T01:07:40.425Z,952.2
2023-05-04T01:08:42.274Z,952.2
2023-05-04T01:09:44.030Z,952.1
2023-05-04T01:10:45.870Z,952.1
2023-05-04T01:11:47.625Z,952.1
2023-05-04T01:12:49.624Z,952.1
2023-05-04T01:13:51.625Z,952.1
2023-05-04T01:14:53.602Z,952.1
2023-05-04T01:15:55.426Z,952.1
2023-05-04T01:16:57.299Z,952.1
2023-05-04T01:17:59.188Z,952.1
2023-05-04T01:19:01.187Z,952.1
2023-05-04T01:20:03.422Z,952.1
2023-05-04T01:21:06.019Z,952.1
2023-05-04T01:22:07.866Z,952.1
2023-05-04T01:23:09.713Z,952.1
2023-05-04T01:24:11.569Z,952.1
2023-05-04T01:25:13.413Z,952.1
2023-05-04T01:26:15.234Z,952
2023-05-04T01:27:16.909Z,952
2023-05-04T01:28:18.543Z,952
2023-05-04T01:29:20.308Z,952
2023-05-04T01:30:22.110Z,952
2023-05-04T01:31:24.318Z,952
2023-05-04T01:32:26.373Z,952
2023-05-04T01:33:28.215Z,951.9
2023-05-04T01:34:30.260Z,952
2023-05-04T01:35:32.117Z,951.9
2023-05-04T01:36:33.889Z,951.9
2023-05-04T01:37:35.471Z,951.9
2023-05-04T01:38:37.164Z,951.9
2023-05-04T01:39:39.109Z,952
2023-05-04T01:40:40.761Z,951.9
2023-05-04T01:41:42.507Z,951.9
2023-05-04T01:42:44.239Z,951.9
2023-05-04T01:43:46.094Z,951.9
2023-05-04T01:44:48.044Z,951.9
2023-05-04T01:45:50.049Z,951.9
2023-05-04T01:46:52.048Z,951.8
2023-05-04T01:47:54.023Z,951.9
2023-05-04T01:48:56.051Z,951.9
2023-05-04T01:49:57.918Z,951.9
2023-05-04T01:50:59.856Z,951.8
2023-05-04T01:52:01.723Z,951.9
2023-05-04T01:53:03.563Z,951.9
2023-05-04T01:54:05.413Z,951.9
2023-05-04T01:55:07.152Z,951.9
2023-05-04T01:56:08.907Z,951.9
2023-05-04T01:57:10.759Z,951.9
2023-05-04T01:58:12.602Z,951.8
2023-05-04T01:59:14.538Z,951.9
2023-05-04T02:00:16.506Z,951.9
2023-05-04T02:01:18.537Z,951.8
2023-05-04T02:02:20.524Z,951.9
2023-05-04T02:03:22.789Z,951.9
2023-05-04T02:04:24.933Z,951.8
2023-05-04T02:05:26.986Z,951.9
2023-05-04T02:06:28.733Z,951.8
2023-05-04T02:07:30.576Z,951.9
2023-05-04T02:08:32.532Z,951.8
2023-05-04T02:09:34.377Z,951.8
2023-05-04T02:10:36.235Z,951.8
2023-05-04T02:11:38.092Z,951.9
2023-05-04T02:12:40.161Z,951.9
2023-05-04T02:13:41.995Z,951.8
2023-05-04T02:14:43.940Z,951.9
2023-05-04T02:15:45.834Z,951.8
2023-05-04T02:16:47.835Z,951.9
2023-05-04T02:17:49.822Z,951.9
2023-05-04T02:18:51.758Z,951.9
2023-05-04T02:19:53.597Z,951.9
2023-05-04T02:20:55.554Z,951.9
2023-05-04T02:21:57.399Z,951.9
2023-05-04T02:22:59.256Z,951.9
2023-05-04T02:24:01.002Z,952
2023-05-04T02:25:02.844Z,952
2023-05-04T02:26:04.595Z,951.9
2023-05-04T02:27:06.443Z,951.9
2023-05-04T02:28:08.358Z,951.9
2023-05-04T02:29:10.254Z,952
2023-05-04T02:30:12.056Z,951.9
2023-05-04T02:31:13.948Z,952
2023-05-04T02:32:15.829Z,952
2023-05-04T02:33:17.571Z,952
2023-05-04T02:34:19.399Z,952
2023-05-04T02:35:21.140Z,952
2023-05-04T02:36:23.197Z,952
2023-05-04T02:37:24.965Z,952
2023-05-04T02:38:26.894Z,952
2023-05-04T02:39:28.756Z,952.1
2023-05-04T02:40:30.603Z,952
2023-05-04T02:41:32.450Z,952.1
2023-05-04T02:42:34.300Z,952
2023-05-04T02:43:36.150Z,952.1
2023-05-04T02:44:38.001Z,952
2023-05-04T02:45:40.007Z,952
2023-05-04T02:46:41.898Z,952
2023-05-04T02:47:43.828Z,952.1
2023-05-04T02:48:45.811Z,952
2023-05-04T02:49:47.592Z,952
2023-05-04T02:50:49.377Z,952
2023-05-04T02:51:51.045Z,952
2023-05-04T02:52:52.804Z,952
2023-05-04T02:53:54.553Z,952
2023-05-04T02:54:56.406Z,952
2023-05-04T02:55:58.382Z,952
2023-05-04T02:57:00.202Z,952
2023-05-04T02:58:02.047Z,952
2023-05-04T02:59:03.887Z,952.1
2023-05-04T03:00:06.936Z,952.1
2023-05-04T03:01:09.421Z,952.1
2023-05-04T03:02:11.432Z,952.1
2023-05-04T03:03:13.386Z,952.1
2023-05-04T03:04:15.504Z,952.1
2023-05-04T03:05:17.557Z,952.1
2023-05-04T03:06:19.408Z,952.1
2023-05-04T03:07:21.376Z,952.1
2023-05-04T03:08:23.108Z,952.1
2023-05-04T03:09:25.056Z,952.1
2023-05-04T03:10:26.935Z,952.2
2023-05-04T03:11:28.764Z,952.1
2023-05-04T03:12:30.732Z,952.1
2023-05-04T03:13:32.577Z,952.1
2023-05-04T03:14:34.547Z,952.1
2023-05-04T03:15:36.373Z,952.2
2023-05-04T03:16:38.557Z,952.2
2023-05-04T03:17:40.487Z,952.1
2023-05-04T03:18:57.723Z,952.2
2023-05-04T03:19:59.645Z,952.2
2023-05-04T03:21:01.599Z,952.1
2023-05-04T03:22:03.462Z,952.1
2023-05-04T03:23:05.401Z,952.1
2023-05-04T03:24:07.353Z,952.1
2023-05-04T03:25:09.308Z,952.2
2023-05-04T03:26:11.158Z,952.1
2023-05-04T03:27:13.108Z,952.1
2023-05-04T03:28:14.961Z,952.1
2023-05-04T03:29:16.785Z,952.1
2023-05-04T03:30:18.761Z,952.1
2023-05-04T03:31:20.840Z,952.1
2023-05-04T03:32:22.852Z,952.1
2023-05-04T03:33:24.825Z,952.2
2023-05-04T03:34:26.977Z,952.2
2023-05-04T03:35:29.028Z,952.2
2023-05-04T03:36:30.878Z,952.2
2023-05-04T03:37:32.619Z,952.2
2023-05-04T03:38:34.671Z,952.2
2023-05-04T03:39:36.537Z,952.2
2023-05-04T03:40:38.421Z,952.2
2023-05-04T03:41:40.234Z,952.2
2023-05-04T03:42:41.956Z,952.2
2023-05-04T03:43:43.723Z,952.3
2023-05-04T03:44:45.576Z,952.3
2023-05-04T03:45:47.519Z,952.3
2023-05-04T03:46:49.387Z,952.3
2023-05-04T03:47:51.443Z,952.3
2023-05-04T03:48:53.387Z,952.3
2023-05-04T03:49:55.145Z,952.3
2023-05-04T03:50:56.878Z,952.4
2023-05-04T03:51:58.682Z,952.3
2023-05-04T03:53:00.453Z,952.4
2023-05-04T03:54:02.222Z,952.3
2023-05-04T03:55:03.953Z,952.4
2023-05-04T03:56:05.924Z,952.4
2023-05-04T03:57:07.647Z,952.4
2023-05-04T03:58:09.522Z,952.4
2023-05-04T03:59:11.372Z,952.4
2023-05-04T04:00:13.211Z,952.4
2023-05-04T04:01:14.970Z,952.4
2023-05-04T04:02:16.935Z,952.4
2023-05-04T04:03:19.268Z,952.4
2023-05-04T04:04:21.701Z,952.4
2023-05-04T04:05:23.728Z,952.4
2023-05-04T04:06:25.550Z,952.5
2023-05-04T04:07:27.387Z,952.4
2023-05-04T04:08:29.234Z,952.5
2023-05-04T04:09:31.305Z,952.5
2023-05-04T04:10:33.255Z,952.5
2023-05-04T04:11:35.097Z,952.5
2023-05-04T04:12:37.085Z,952.5
2023-05-04T04:13:39.016Z,952.5
2023-05-04T04:14:40.854Z,952.5
2023-05-04T04:15:43.334Z,952.5
2023-05-04T04:16:45.445Z,952.5
2023-05-04T04:17:47.376Z,952.5
2023-05-04T04:18:49.272Z,952.5
2023-05-04T04:19:51.055Z,952.5
2023-05-04T04:20:52.802Z,952.5
2023-05-04T04:21:54.722Z,952.5
2023-05-04T04:22:56.681Z,952.5
2023-05-04T04:23:58.450Z,952.5
2023-05-04T04:25:00.484Z,952.5
2023-05-04T04:26:02.332Z,952.5
2023-05-04T04:27:04.087Z,952.5
2023-05-04T04:28:05.827Z,952.5
2023-05-04T04:29:07.698Z,952.5
2023-05-04T04:30:09.628Z,952.5
2023-05-04T04:31:11.700Z,952.5
2023-05-04T04:32:13.533Z,952.5
2023-05-04T04:33:15.366Z,952.5
2023-05-04T04:34:17.334Z,952.6
2023-05-04T04:35:21.943Z,952.5
2023-05-04T04:36:23.820Z,952.6
2023-05-04T04:37:25.673Z,952.6
2023-05-04T04:38:27.397Z,952.6
2023-05-04T04:39:29.406Z,952.6
2023-05-04T04:40:31.371Z,952.6
2023-05-04T04:41:33.176Z,952.6
2023-05-04T04:42:34.903Z,952.6
2023-05-04T04:43:36.743Z,952.6
2023-05-04T04:44:38.605Z,952.6
2023-05-04T04:45:40.445Z,952.6
2023-05-04T04:46:42.414Z,952.6
2023-05-04T04:47:44.553Z,952.6
2023-05-04T04:48:46.511Z,952.6
2023-05-04T04:49:48.362Z,952.6
2023-05-04T04:50:50.202Z,952.6
2023-05-04T04:51:52.073Z,952.6
2023-05-04T04:52:53.921Z,952.6
2023-05-04T04:53:55.809Z,952.6
2023-05-04T04:54:57.615Z,952.7
2023-05-04T04:55:59.687Z,952.7
2023-05-04T04:57:01.508Z,952.7
2023-05-04T04:58:03.169Z,952.7
2023-05-04T04:59:05.012Z,952.7
2023-05-04T05:00:07.445Z,952.7
2023-05-04T05:01:09.843Z,952.8
2023-05-04T05:02:11.599Z,952.8
2023-05-04T05:03:13.457Z,952.8
2023-05-04T05:04:15.410Z,952.8
2023-05-04T05:05:17.465Z,952.8
2023-05-04T05:06:19.194Z,952.8
2023-05-04T05:07:21.062Z,952.8
2023-05-04T05:08:22.888Z,952.8
2023-05-04T05:09:24.748Z,952.8
2023-05-04T05:10:26.580Z,952.8
2023-05-04T05:11:28.298Z,952.8
2023-05-04T05:12:30.185Z,952.8
2023-05-04T05:13:32.034Z,952.8
2023-05-04T05:14:33.788Z,952.8
2023-05-04T05:15:35.848Z,952.9
2023-05-04T05:16:37.712Z,952.8
2023-05-04T05:17:39.778Z,952.9
2023-05-04T05:18:41.586Z,952.9
2023-05-04T05:19:43.345Z,952.9
2023-05-04T05:20:45.185Z,952.9
2023-05-04T05:21:47.039Z,952.9
2023-05-04T05:22:48.931Z,952.9
2023-05-04T05:23:50.630Z,952.9
2023-05-04T05:24:52.382Z,952.9
2023-05-04T05:25:54.136Z,952.9
2023-05-04T05:26:55.980Z,952.9
2023-05-04T05:27:57.931Z,952.9
2023-05-04T05:28:59.788Z,952.9
2023-05-04T05:30:01.788Z,952.9
2023-05-04T05:31:04.355Z,952.9
2023-05-04T05:32:06.253Z,952.9
2023-05-04T05:33:08.202Z,952.9
2023-05-04T05:34:09.842Z,952.9
2023-05-04T05:35:11.597Z,953
2023-05-04T05:36:13.445Z,953
2023-05-04T05:37:15.380Z,953
2023-05-04T05:38:17.169Z,953
2023-05-04T05:39:18.994Z,953
2023-05-04T05:40:20.855Z,953
2023-05-04T05:41:22.646Z,953
2023-05-04T05:42:24.654Z,953
2023-05-04T05:43:26.373Z,953
2023-05-04T05:44:28.251Z,953
2023-05-04T05:45:29.989Z,953
2023-05-04T05:46:31.754Z,953.1
2023-05-04T05:47:33.853Z,953.1
2023-05-04T05:48:35.846Z,953
2023-05-04T05:49:37.712Z,953
2023-05-04T05:50:39.548Z,953.1
2023-05-04T05:51:41.323Z,953
2023-05-04T05:52:43.241Z,953
2023-05-04T05:53:45.074Z,953.1
2023-05-04T05:54:46.950Z,953.1
2023-05-04T05:55:48.792Z,953.1
2023-05-04T05:56:50.466Z,953.1
2023-05-04T05:57:52.503Z,953.1
2023-05-04T05:58:54.349Z,953.1
2023-05-04T05:59:56.400Z,953.1
2023-05-04T06:00:58.314Z,953.1
2023-05-04T06:02:00.209Z,953.1
2023-05-04T06:03:02.491Z,953.1
2023-05-04T06:04:05.733Z,953.1
2023-05-04T06:05:08.018Z,953.1
2023-05-04T06:06:09.855Z,953.1
2023-05-04T06:07:11.717Z,953.1
2023-05-04T06:08:13.569Z,953.1
2023-05-04T06:09:15.423Z,953.1
2023-05-04T06:10:17.266Z,953.1
2023-05-04T06:11:19.233Z,953.1
2023-05-04T06:12:21.164Z,953.1
2023-05-04T06:13:22.987Z,953.1
2023-05-04T06:14:24.770Z,953.1
2023-05-04T06:15:26.608Z,953.1
2023-05-04T06:16:28.458Z,953.1
2023-05-04T06:17:30.428Z,953.1
2023-05-04T06:18:32.271Z,953.1
2023-05-04T06:19:34.111Z,953.1
2023-05-04T06:20:36.001Z,953.1
2023-05-04T06:21:37.815Z,953.1
2023-05-04T06:22:39.572Z,953.1
2023-05-04T06:23:41.376Z,953.1
2023-05-04T06:24:43.074Z,953.1
2023-05-04T06:25:44.932Z,953.1
2023-05-04T06:26:46.870Z,953.1
2023-05-04T06:27:48.668Z,953.1
2023-05-04T06:28:50.583Z,953.1
2023-05-04T06:29:52.409Z,953.1
2023-05-04T06:30:54.176Z,953.1
2023-05-04T06:31:56.390Z,953
2023-05-04T06:32:58.346Z,953
2023-05-04T06:34:00.122Z,953
2023-05-04T06:35:02.069Z,953
2023-05-04T06:36:03.881Z,953.1
2023-05-04T06:37:05.886Z,953.1
2023-05-04T06:38:07.837Z,953.1
2023-05-04T06:39:10.305Z,953.1
2023-05-04T06:40:13.783Z,953.1
2023-05-04T06:41:16.147Z,953.1
2023-05-04T06:42:18.189Z,953.1
2023-05-04T06:43:20.084Z,953.1
2023-05-04T06:44:22.033Z,953.1
2023-05-04T06:45:23.853Z,953.1
2023-05-04T06:46:26.504Z,953.1
2023-05-04T06:47:28.289Z,953.1
2023-05-04T06:48:30.118Z,953.2
2023-05-04T06:49:31.970Z,953.2
2023-05-04T06:50:33.958Z,953.2
2023-05-04T06:51:35.768Z,953.2
2023-05-04T06:52:37.616Z,953.2
2023-05-04T06:53:39.375Z,953.2
2023-05-04T06:54:41.216Z,953.2
2023-05-04T06:55:43.183Z,953.2
2023-05-04T06:56:45.028Z,953.2
2023-05-04T06:57:47.001Z,953.2
2023-05-04T06:58:49.216Z,953.2
2023-05-04T06:59:51.006Z,953.2
2023-05-04T07:00:52.898Z,953.2
2023-05-04T07:01:54.922Z,953.2
2023-05-04T07:02:56.969Z,953.2
2023-05-04T07:03:59.048Z,953.2
2023-05-04T07:05:00.854Z,953.2
2023-05-04T07:06:02.609Z,953.2
2023-05-04T07:07:04.399Z,953.2
2023-05-04T07:08:06.197Z,953.2
2023-05-04T07:09:08.039Z,953.2
2023-05-04T07:10:09.835Z,953.2
2023-05-04T07:11:11.791Z,953.3
2023-05-04T07:12:13.625Z,953.2
2023-05-04T07:13:15.610Z,953.3
2023-05-04T07:14:17.617Z,953.2
2023-05-04T07:15:19.550Z,953.2
2023-05-04T07:16:21.527Z,953.2
2023-05-04T07:17:23.464Z,953.2
2023-05-04T07:18:25.291Z,953.2
2023-05-04T07:19:27.091Z,953.2
2023-05-04T07:20:28.900Z,953.2
2023-05-04T07:21:30.750Z,953.2
2023-05-04T07:22:32.462Z,953.2
2023-05-04T07:23:34.345Z,953.3
2023-05-04T07:24:36.322Z,953.2
2023-05-04T07:25:38.163Z,953.2
2023-05-04T07:26:40.142Z,953.3
2023-05-04T07:27:41.963Z,953.3
2023-05-04T07:28:44.197Z,953.3
2023-05-04T07:29:45.964Z,953.3
2023-05-04T07:30:47.831Z,953.3
2023-05-04T07:31:49.924Z,953.3
2023-05-04T07:32:52.038Z,953.3
2023-05-04T07:33:53.958Z,953.3
2023-05-04T07:34:55.673Z,953.3
2023-05-04T07:35:57.493Z,953.3
2023-05-04T07:36:59.518Z,953.3
2023-05-04T07:38:01.381Z,953.3
2023-05-04T07:39:03.213Z,953.3
2023-05-04T07:40:06.325Z,953.3
2023-05-04T07:41:08.806Z,953.3
2023-05-04T07:42:11.063Z,953.3
2023-05-04T07:43:12.838Z,953.3
2023-05-04T07:44:15.044Z,953.3
2023-05-04T07:45:16.816Z,953.3
2023-05-04T07:46:19.135Z,953.3
2023-05-04T07:47:20.867Z,953.3
2023-05-04T07:48:26.827Z,953.3
2023-05-04T07:49:28.809Z,953.3
2023-05-04T07:50:30.628Z,953.3
2023-05-04T07:51:32.446Z,953.3
2023-05-04T07:52:34.353Z,953.4
2023-05-04T07:53:36.012Z,953.3
2023-05-04T07:54:37.748Z,953.3
2023-05-04T07:55:39.685Z,953.4
2023-05-04T07:56:41.417Z,953.4
2023-05-04T07:57:43.056Z,953.4
2023-05-04T07:58:44.725Z,953.4
2023-05-04T07:59:46.513Z,953.4
2023-05-04T08:00:48.318Z,953.4
2023-05-04T08:01:50.699Z,953.4
2023-05-04T08:02:52.685Z,953.4
2023-05-04T08:03:54.665Z,953.4
2023-05-04T08:04:56.469Z,953.5
2023-05-04T08:05:58.304Z,953.5
2023-05-04T08:07:00.148Z,953.5
2023-05-04T08:08:01.994Z,953.5
2023-05-04T08:09:03.961Z,953.5
2023-05-04T08:10:06.463Z,953.5
2023-05-04T08:11:21.467Z,953.5
2023-05-04T08:12:23.653Z,953.5
2023-05-04T08:13:25.491Z,953.5
2023-05-04T08:14:27.551Z,953.5
2023-05-04T08:15:29.751Z,953.6
2023-05-04T08:16:32.371Z,953.6
2023-05-04T08:17:34.434Z,953.6
2023-05-04T08:18:36.363Z,953.5
2023-05-04T08:19:38.316Z,953.6
2023-05-04T08:20:40.136Z,953.6
2023-05-04T08:21:41.771Z,953.5
2023-05-04T08:22:45.056Z,953.6
2023-05-04T08:23:46.911Z,953.5
2023-05-04T08:24:48.707Z,953.5
2023-05-04T08:25:50.853Z,953.6
2023-05-04T08:27:10.277Z,953.5
2023-05-04T08:28:12.282Z,953.5
2023-05-04T08:29:14.132Z,953.5
2023-05-04T08:30:15.929Z,953.5
2023-05-04T08:31:18.097Z,953.5
2023-05-04T08:32:19.951Z,953.5
2023-05-04T08:33:22.239Z,953.5
2023-05-04T08:34:24.253Z,953.5
2023-05-04T08:35:26.254Z,953.5
2023-05-04T08:36:28.221Z,953.5
2023-05-04T08:37:29.983Z,953.5
2023-05-04T08:38:31.980Z,953.5
2023-05-04T08:39:33.906Z,953.5
2023-05-04T08:40:35.907Z,953.4
2023-05-04T08:41:37.713Z,953.5
2023-05-04T08:42:39.692Z,953.5
2023-05-04T08:43:42.077Z,953.4
2023-05-04T08:44:44.524Z,953.5
2023-05-04T08:45:47.207Z,953.4
2023-05-04T08:46:49.560Z,953.4
2023-05-04T08:47:51.530Z,953.4
2023-05-04T08:48:53.452Z,953.4
2023-05-04T08:49:55.164Z,953.4
2023-05-04T08:50:57.041Z,953.4
2023-05-04T08:51:58.843Z,953.4
2023-05-04T08:53:00.676Z,953.4
2023-05-04T08:54:02.439Z,953.4
2023-05-04T08:55:04.932Z,953.4
2023-05-04T08:56:07.236Z,953.3
2023-05-04T08:57:09.195Z,953.3
2023-05-04T08:58:11.140Z,953.4
2023-05-04T08:59:13.000Z,953.4
2023-05-04T09:00:14.866Z,953.4
2023-05-04T09:01:16.956Z,953.3
2023-05-04T09:02:19.281Z,953.4
2023-05-04T09:03:21.570Z,953.4
2023-05-04T09:04:23.988Z,953.4
2023-05-04T09:05:25.752Z,953.4
2023-05-04T09:06:27.496Z,953.5
2023-05-04T09:07:29.306Z,953.4
2023-05-04T09:08:31.508Z,953.4
2023-05-04T09:09:33.228Z,953.4
2023-05-04T09:10:34.891Z,953.5
2023-05-04T09:11:36.735Z,953.5
2023-05-04T09:12:38.840Z,953.4
2023-05-04T09:13:40.942Z,953.5
2023-05-04T09:14:42.790Z,953.4
2023-05-04T09:15:44.710Z,953.4
2023-05-04T09:16:46.498Z,953.5
2023-05-04T09:17:58.569Z,953.5
2023-05-04T09:19:00.740Z,953.5
2023-05-04T09:20:02.686Z,953.5
2023-05-04T09:21:04.478Z,953.4
2023-05-04T09:22:06.303Z,953.5
2023-05-04T09:23:08.084Z,953.5
2023-05-04T09:24:10.200Z,953.5
2023-05-04T09:25:12.004Z,953.4
2023-05-04T09:26:13.795Z,953.4
2023-05-04T09:27:15.659Z,953.4
2023-05-04T09:28:17.403Z,953.4
2023-05-04T09:29:19.124Z,953.4
2023-05-04T09:30:20.936Z,953.4
2023-05-04T09:31:23.020Z,953.4
2023-05-04T09:32:25.118Z,953.4
2023-05-04T09:33:27.267Z,953.5
2023-05-04T09:34:29.717Z,953.5
2023-05-04T09:35:34.834Z,953.5
2023-05-04T09:36:36.597Z,953.4
2023-05-04T09:37:38.265Z,953.4
2023-05-04T09:38:40.187Z,953.4
2023-05-04T09:39:41.948Z,953.4
2023-05-04T09:40:43.911Z,953.4
2023-05-04T09:41:45.745Z,953.4
2023-05-04T09:42:47.603Z,953.4
2023-05-04T09:43:49.444Z,953.4
2023-05-04T09:44:51.188Z,953.4
2023-05-04T09:45:53.060Z,953.4
2023-05-04T09:46:55.063Z,953.4
2023-05-04T09:47:57.081Z,953.3
2023-05-04T09:48:59.050Z,953.3
2023-05-04T09:50:01.027Z,953.3
2023-05-04T09:51:03.026Z,953.3
2023-05-04T09:52:05.480Z,953.3
2023-05-04T09:53:07.278Z,953.3
2023-05-04T09:54:09.217Z,953.3
2023-05-04T09:55:11.150Z,953.4
2023-05-04T09:56:12.756Z,953.3
2023-05-04T09:57:14.927Z,953.3
2023-05-04T09:58:16.791Z,953.3
2023-05-04T09:59:18.628Z,953.3
2023-05-04T10:00:20.784Z,953.3
2023-05-04T10:01:22.959Z,953.3
2023-05-04T10:02:25.253Z,953.3
2023-05-04T10:03:27.608Z,953.3
2023-05-04T10:04:29.525Z,953.2
2023-05-04T10:05:31.323Z,953.2
2023-05-04T10:06:33.318Z,953.2
2023-05-04T10:07:35.156Z,953.2
2023-05-04T10:08:37.038Z,953.2
2023-05-04T10:09:38.869Z,953.2
2023-05-04T10:10:40.802Z,953.2
2023-05-04T10:11:42.569Z,953.2
2023-05-04T10:12:44.426Z,953.2
2023-05-04T10:13:46.356Z,953.1
2023-05-04T10:14:48.271Z,953.1
2023-05-04T10:15:50.396Z,953.1
2023-05-04T10:16:52.332Z,953.1
2023-05-04T10:17:54.748Z,953.1
2023-05-04T10:18:56.707Z,953.1
2023-05-04T10:19:58.797Z,953.1
2023-05-04T10:21:00.719Z,953.1
2023-05-04T10:22:02.905Z,953.1
2023-05-04T10:23:04.753Z,953.1
2023-05-04T10:24:06.700Z,953.1
2023-05-04T10:25:09.014Z,953.1
2023-05-04T10:26:10.980Z,953.1
2023-05-04T10:27:12.974Z,953.1
2023-05-04T10:28:14.819Z,953.1
2023-05-04T10:29:16.979Z,953.1
2023-05-04T10:30:18.987Z,953
2023-05-04T10:31:21.096Z,953
2023-05-04T10:32:23.277Z,953.1
2023-05-04T10:33:25.420Z,953
2023-05-04T10:34:27.373Z,953.1
2023-05-04T10:35:29.169Z,953.1
2023-05-04T10:36:31.060Z,953.1
2023-05-04T10:37:32.929Z,953.1
2023-05-04T10:38:34.768Z,953.1
2023-05-04T10:39:36.819Z,953
2023-05-04T10:40:38.659Z,953
2023-05-04T10:41:40.508Z,953.1
2023-05-04T10:42:42.251Z,953
2023-05-04T10:43:44.310Z,953
2023-05-04T10:44:46.091Z,953.1
2023-05-04T10:45:48.126Z,953
2023-05-04T10:46:50.075Z,953
2023-05-04T10:47:52.136Z,953.1
2023-05-04T10:48:54.821Z,953.1
2023-05-04T10:49:56.641Z,953.1
2023-05-04T10:50:58.600Z,953
2023-05-04T10:52:00.454Z,953
2023-05-04T10:53:02.507Z,953.1
2023-05-04T10:54:04.763Z,953
2023-05-04T10:55:07.339Z,953.1
2023-05-04T10:56:09.392Z,953.1
2023-05-04T10:57:11.337Z,953.1
2023-05-04T10:58:13.244Z,953
2023-05-04T10:59:15.020Z,953.1
2023-05-04T11:00:16.884Z,953.1
2023-05-04T11:01:18.781Z,953.1
2023-05-04T11:02:20.721Z,953.1
2023-05-04T11:03:23.306Z,953.1
2023-05-04T11:04:25.433Z,953.1
2023-05-04T11:05:27.256Z,953.1
2023-05-04T11:06:29.322Z,953.1
2023-05-04T11:07:31.401Z,953.1
2023-05-04T11:08:33.330Z,953.1
2023-05-04T11:09:35.179Z,953.1
2023-05-04T11:10:37.548Z,953.1
2023-05-04T11:11:39.445Z,953.1
2023-05-04T11:12:41.410Z,953.1
2023-05-04T11:13:43.314Z,953.1
2023-05-04T11:14:45.099Z,953.1
2023-05-04T11:15:46.882Z,953.1
2023-05-04T11:16:48.896Z,953.1
2023-05-04T11:17:51.030Z,953.1
2023-05-04T11:18:53.040Z,953.1
2023-05-04T11:19:54.847Z,953.1
2023-05-04T11:20:56.647Z,953.1
2023-05-04T11:21:58.388Z,953.1
2023-05-04T11:23:00.259Z,953.1
2023-05-04T11:24:02.214Z,953.1
2023-05-04T11:25:04.916Z,953
2023-05-04T11:26:09.470Z,953
2023-05-04T11:27:11.348Z,953.1
2023-05-04T11:28:15.233Z,953.1
2023-05-04T11:29:17.077Z,953.1
2023-05-04T11:30:19.016Z,953.1
2023-05-04T11:31:21.113Z,953.1
2023-05-04T11:32:23.480Z,953.2
2023-05-04T11:33:25.540Z,953.1
2023-05-04T11:34:27.360Z,953.1
2023-05-04T11:35:29.219Z,953.2
2023-05-04T11:36:31.115Z,953.1
2023-05-04T11:37:32.923Z,953.1
2023-05-04T11:38:34.706Z,953.1
2023-05-04T11:39:39.921Z,953.1
2023-05-04T11:40:41.921Z,953.1
2023-05-04T11:41:43.714Z,953.1
2023-05-04T11:42:45.649Z,953.1
2023-05-04T11:43:47.502Z,953.1
2023-05-04T11:44:49.662Z,953.1
2023-05-04T11:45:51.408Z,953.1
2023-05-04T11:46:53.594Z,953.1
2023-05-04T11:47:55.943Z,953
2023-05-04T11:48:58.019Z,953
2023-05-04T11:49:59.919Z,953
2023-05-04T11:51:01.890Z,953
2023-05-04T11:52:03.931Z,953
2023-05-04T11:53:05.767Z,953
2023-05-04T11:54:07.641Z,953
2023-05-04T11:55:09.996Z,953
2023-05-04T11:56:11.766Z,953.1
2023-05-04T11:57:13.563Z,953.1
2023-05-04T11:58:15.418Z,953
2023-05-04T11:59:17.168Z,953.1
2023-05-04T12:00:19.144Z,953.1
2023-05-04T12:01:20.890Z,953.1
2023-05-04T12:02:22.794Z,953.1
2023-05-04T12:03:53.556Z,953.1
2023-05-04T12:04:56.219Z,953
2023-05-04T12:05:58.463Z,953.1
2023-05-04T12:07:02.280Z,953
2023-05-04T12:08:04.127Z,953
2023-05-04T12:09:06.609Z,953.1
2023-05-04T12:10:08.450Z,953.1
2023-05-04T12:11:10.384Z,953.1
2023-05-04T12:12:12.251Z,953.1
2023-05-04T12:13:14.272Z,953
2023-05-04T12:14:16.364Z,953
2023-05-04T12:15:18.218Z,953
2023-05-04T12:16:20.235Z,953
2023-05-04T12:17:22.674Z,953
2023-05-04T12:18:24.461Z,953
2023-05-04T12:19:26.243Z,953
2023-05-04T12:20:28.076Z,953
2023-05-04T12:21:30.021Z,953
2023-05-04T12:22:31.843Z,953
2023-05-04T12:23:33.715Z,953
2023-05-04T12:24:35.618Z,953
2023-05-04T12:25:58.647Z,953
2023-05-04T12:27:00.599Z,953
2023-05-04T12:28:02.359Z,952.9
2023-05-04T12:29:04.186Z,952.9
2023-05-04T12:30:05.924Z,952.9
2023-05-04T12:31:07.782Z,952.9
2023-05-04T12:32:09.955Z,952.9
2023-05-04T12:33:11.798Z,952.9
2023-05-04T12:34:13.545Z,952.9
2023-05-04T12:35:15.275Z,952.9
2023-05-04T12:36:17.110Z,952.9
2023-05-04T12:37:18.978Z,952.8
2023-05-04T12:38:20.854Z,952.8
2023-05-04T12:39:22.589Z,952.8
2023-05-04T12:40:29.517Z,952.8
2023-05-04T12:41:31.512Z,952.8
2023-05-04T12:42:33.444Z,952.8
2023-05-04T12:43:35.314Z,952.8
2023-05-04T12:44:37.073Z,952.8
2023-05-04T12:45:38.910Z,952.8
2023-05-04T12:46:40.761Z,952.8
2023-05-04T12:47:42.611Z,952.7
2023-05-04T12:48:44.550Z,952.7
2023-05-04T12:49:46.395Z,952.7
2023-05-04T12:50:48.335Z,952.7
2023-05-04T12:51:50.088Z,952.7
2023-05-04T12:52:52.046Z,952.7
2023-05-04T12:53:54.150Z,952.7
2023-05-04T12:54:55.961Z,952.7
2023-05-04T12:55:58.120Z,952.7
2023-05-04T12:56:59.968Z,952.7
2023-05-04T12:58:01.901Z,952.6
2023-05-04T12:59:03.894Z,952.7
2023-05-04T13:00:06.157Z,952.6
2023-05-04T13:01:08.145Z,952.6
2023-05-04T13:02:10.039Z,952.6
2023-05-04T13:03:12.469Z,952.6
2023-05-04T13:04:14.957Z,952.6
2023-05-04T13:05:16.694Z,952.6
2023-05-04T13:06:18.428Z,952.6
2023-05-04T13:07:20.133Z,952.6
2023-05-04T13:08:21.880Z,952.6
2023-05-04T13:09:23.816Z,952.6
2023-05-04T13:10:25.628Z,952.6
2023-05-04T13:11:27.604Z,952.6
2023-05-04T13:12:29.655Z,952.7
2023-05-04T13:13:31.529Z,952.7
2023-05-04T13:14:40.414Z,952.6
2023-05-04T13:15:42.451Z,952.6
2023-05-04T13:16:44.546Z,952.6
2023-05-04T13:17:46.637Z,952.6
2023-05-04T13:18:48.536Z,952.6
2023-05-04T13:19:50.395Z,952.6
2023-05-04T13:20:52.242Z,952.6
2023-05-04T13:21:53.974Z,952.6
2023-05-04T13:22:58.893Z,952.6
2023-05-04T13:24:00.856Z,952.6
2023-05-04T13:25:02.550Z,952.6
2023-05-04T13:26:04.329Z,952.5